map of JHM home
JHM - Airport
Location
City:  Lahaina, Maui, Hawaii, United States
Name:Kapalua Airport
ICAO:PHJH
IATA:JHM
FAA LID:JHM

Details
Type:Airport (Part 139 Class I)
Use:Private
Latitude:2057'47"N (20.962936)
Longitude:15640'23"W (-156.673031)
Datum:WGS 1984
Elevation:255 ft (78 m)
Variation:9.49E (WMM2015v2 magnetic declination)
-0.02 annual change
Runways:1
Longest:3000 × 100 ft (914 × 30.5 m), paved

Time
Time Zone:UTC-10
Local Time:

Weather
METAR:PHJH 040345Z 05013KTKT 10SM SCT025 BKN035 23/19 A2990 RMK LAST
TAF:PHJH 032340Z 0400/0424 04013G20KT P6SM VCSH SCT030 BKN045
FM040600 03012KT P6SM SCT030 BKN045
FM042100 05014G22KT P6SM SCT030 SCT045
AMD NOT SKED AFT 040400

Related Locations
Nearby:
Farthest:FBRK: 12383 mi / 19928 km
Rakops [Rakops Airport], CE, BW

Find:

   beyond  
but within

Other Information
Maps:
NOTAMs:
Links:
Sources:

  
  • flag of United States
  • flag of Hawaii
  

Sectional Chart

Flight Planning
at skyvector.com

Satellite Image

Google Maps Satellite view

 

Copyright © 2004-2019 Karl L. Swartz. All rights reserved.
The Great Circle Mapper name and logo are trademarks of the Great Circle Mapper.
All other trademarks mentioned herein belong to their respective owners.
Please see credits for attibutions and further copyright information.

  Follow gcmap on Facebook Follow gcmap on Twitter GCmap on LinkedIn

hCard Microformat

Geo Microformat